Time;durP1;ratioP1;P1;durP2;ratioP2;P2;SDS_P1;SDS_P2;PMS_P1;PMS_P2;Temp;Humidity;BMP_temperature;BMP_pressure;BME280_temperature;BME280_humidity;BME280_pressure;Samples;Min_cycle;Max_cycle;Signal;HPM_P1;HPM_P2
2022/03/03 00:00:08;;;;;;;0.60;0.60;;;;;;;0.85;67.01;97094.12;29373;232;63009;-68
2022/03/03 00:00:39;;;;;;;0.60;0.60;;;;;;;0.85;67.48;97090.66;29373;319;63004;-67
2022/03/03 00:01:11;;;;;;;0.60;0.60;;;;;;;0.85;67.30;97093.31;29373;198;63009;-66
2022/03/03 00:01:42;;;;;;;0.60;0.60;;;;;;;0.86;67.29;97089.59;29373;220;63004;-67
2022/03/03 00:02:13;;;;;;;0.52;0.52;;;;;;;0.88;67.10;97090.19;29371;216;64013;-68
2022/03/03 00:02:45;;;;;;;0.60;0.60;;;;;;;0.88;66.90;97095.53;29373;268;63004;-62
2022/03/03 00:03:16;;;;;;;0.60;0.60;;;;;;;0.88;67.11;97087.53;29373;280;63009;-65
2022/03/03 00:03:47;;;;;;;0.60;0.60;;;;;;;0.89;66.89;97094.50;29373;339;63005;-67
2022/03/03 00:04:19;;;;;;;0.60;0.60;;;;;;;0.88;66.98;97095.53;29373;226;63009;-66
2022/03/03 00:04:52;;;;;;;0.60;0.60;;;;;;;0.89;66.75;97094.50;29373;227;63005;-67
2022/03/03 00:05:23;;;;;;;0.90;0.90;;;;;;;0.89;66.84;97099.84;29371;222;64013;-68
2022/03/03 00:05:54;;;;;;;0.60;0.60;;;;;;;0.88;66.87;97108.91;29373;225;63017;-68
2022/03/03 00:06:25;;;;;;;0.60;0.60;;;;;;;0.87;66.96;97099.25;29373;343;63009;-62
2022/03/03 00:06:57;;;;;;;0.60;0.60;;;;;;;0.85;66.91;97104.00;29373;359;63005;-67
2022/03/03 00:07:28;;;;;;;0.60;0.60;;;;;;;0.85;67.18;97104.00;29373;345;63009;-63
2022/03/03 00:08:02;;;;;;;0.60;0.60;;;;;;;0.84;67.22;97102.38;29371;223;64009;-66
2022/03/03 00:08:34;;;;;;;0.60;0.60;;;;;;;0.83;67.24;97104.22;29371;223;64013;-62
2022/03/03 00:09:07;;;;;;;0.60;0.60;;;;;;;0.83;67.39;97100.75;29372;197;63006;-63
2022/03/03 00:09:38;;;;;;;0.60;0.60;;;;;;;0.80;67.58;97102.00;29373;207;63009;-68
2022/03/03 00:10:11;;;;;;;0.60;0.60;;;;;;;0.79;67.27;97099.56;29373;199;63004;-62
2022/03/03 00:10:42;;;;;;;0.60;0.60;;;;;;;0.78;67.92;97104.09;29373;255;63009;-63
2022/03/03 00:11:13;;;;;;;0.60;0.60;;;;;;;0.77;67.57;97102.47;29373;213;63005;-67
2022/03/03 00:11:45;;;;;;;0.60;0.60;;;;;;;0.77;67.67;97096.31;29373;203;63009;-66
2022/03/03 00:12:16;;;;;;;0.70;0.70;;;;;;;0.77;67.23;97096.31;29373;215;63005;-67
2022/03/03 00:12:47;;;;;;;0.93;0.93;;;;;;;0.77;67.21;97097.13;29373;206;63009;-66
2022/03/03 00:13:18;;;;;;;0.60;0.60;;;;;;;0.77;67.04;97097.13;29373;343;63005;-67
2022/03/03 00:13:52;;;;;;;0.60;0.60;;;;;;;0.77;67.36;97096.31;29371;207;64013;-66
2022/03/03 00:14:23;;;;;;;0.80;0.80;;;;;;;0.78;67.18;97097.94;29373;239;63005;-65
2022/03/03 00:14:54;;;;;;;0.70;0.70;;;;;;;0.80;66.96;97095.84;29373;197;63009;-63
2022/03/03 00:15:25;;;;;;;0.60;0.60;;;;;;;0.78;66.96;97092.59;29373;304;63004;-67
2022/03/03 00:15:56;;;;;;;1.12;1.12;;;;;;;0.78;67.09;97098.75;29373;213;63009;-69
2022/03/03 00:16:29;;;;;;;0.60;0.60;;;;;;;0.79;66.93;97094.22;29373;197;63000;-67
2022/03/03 00:17:00;;;;;;;0.60;0.60;;;;;;;0.78;67.11;97098.75;29371;197;64013;-62
2022/03/03 00:17:32;;;;;;;0.60;0.60;;;;;;;0.75;67.12;97096.53;29373;205;63004;-67
2022/03/03 00:18:03;;;;;;;0.60;0.60;;;;;;;0.74;67.23;97096.75;29373;301;63008;-62
2022/03/03 00:18:34;;;;;;;0.60;0.60;;;;;;;0.73;67.08;97095.13;29373;246;63005;-67
2022/03/03 00:19:06;;;;;;;0.60;0.60;;;;;;;0.74;67.29;97091.41;29373;204;63009;-66
2022/03/03 00:19:37;;;;;;;0.60;0.60;;;;;;;0.74;66.96;97096.75;29373;281;63005;-68
2022/03/03 00:20:11;;;;;;;0.57;0.57;;;;;;;0.74;67.30;97096.75;29373;211;63009;-67
2022/03/03 00:20:43;;;;;;;0.60;0.60;;;;;;;0.73;67.01;97095.94;29373;324;63005;-62
2022/03/03 00:21:16;;;;;;;0.60;0.60;;;;;;;0.75;67.08;97093.03;29373;202;63015;-64
2022/03/03 00:21:47;;;;;;;0.60;0.60;;;;;;;0.78;66.68;97087.25;29371;197;64009;-63
2022/03/03 00:22:18;;;;;;;0.60;0.60;;;;;;;0.79;66.80;97091.53;29373;251;63009;-62
2022/03/03 00:22:49;;;;;;;0.60;0.60;;;;;;;0.80;66.49;97088.66;29373;204;63004;-66
2022/03/03 00:23:20;;;;;;;0.60;0.60;;;;;;;0.83;66.23;97095.41;29373;205;63009;-62
2022/03/03 00:23:52;;;;;;;0.60;0.60;;;;;;;0.81;66.22;97084.13;29373;202;63004;-68
2022/03/03 00:24:26;;;;;;;0.60;0.60;;;;;;;0.81;66.21;97092.94;29373;221;63009;-69
2022/03/03 00:24:57;;;;;;;0.60;0.60;;;;;;;0.83;66.15;97095.41;29373;283;63007;-70
2022/03/03 00:25:29;;;;;;;0.60;0.60;;;;;;;0.81;66.18;97092.13;29373;220;63008;-62
2022/03/03 00:26:01;;;;;;;0.60;0.60;;;;;;;0.82;66.03;97093.78;29373;202;63005;-67
2022/03/03 00:26:32;;;;;;;0.60;0.60;;;;;;;0.82;66.06;97093.78;29371;303;64014;-68
2022/03/03 00:27:05;;;;;;;0.60;0.60;;;;;;;0.78;66.46;97089.91;29373;310;63005;-62
2022/03/03 00:27:37;;;;;;;0.60;0.60;;;;;;;0.77;66.67;97093.62;29373;341;63009;-68
2022/03/03 00:28:08;;;;;;;0.60;0.60;;;;;;;0.74;66.30;97094.06;29373;197;63005;-68
2022/03/03 00:28:39;;;;;;;0.60;0.60;;;;;;;0.74;66.64;97091.41;29373;207;63009;-69
2022/03/03 00:29:11;;;;;;;0.60;0.60;;;;;;;0.73;66.53;97100.47;29373;214;63005;-68
2022/03/03 00:29:42;;;;;;;6.10;5.78;;;;;;;0.72;66.37;97088.16;29373;229;63009;-66
2022/03/03 00:30:14;;;;;;;0.60;0.60;;;;;;;0.72;66.69;97090.81;29373;274;63004;-64
2022/03/03 00:30:45;;;;;;;0.60;0.60;;;;;;;0.72;66.52;97093.50;29371;204;64013;-67
2022/03/03 00:31:16;;;;;;;0.60;0.60;;;;;;;0.72;66.83;97088.97;29373;332;63004;-63
2022/03/03 00:31:48;;;;;;;0.60;0.60;;;;;;;0.71;66.91;97086.50;29373;207;63009;-62
2022/03/03 00:32:19;;;;;;;0.60;0.60;;;;;;;0.69;66.63;97078.75;29371;219;64009;-68
2022/03/03 00:32:50;;;;;;;0.60;0.60;;;;;;;0.69;66.66;97083.28;29373;202;63008;-63
2022/03/03 00:33:21;;;;;;;0.60;0.60;;;;;;;0.68;66.84;97087.81;29373;220;63005;-68
2022/03/03 00:33:52;;;;;;;0.60;0.60;;;;;;;0.68;66.87;97097.69;29372;256;63009;-63
2022/03/03 00:34:24;;;;;;;0.60;0.60;;;;;;;0.67;66.84;97086.19;29373;219;63005;-68
2022/03/03 00:34:55;;;;;;;0.60;0.60;;;;;;;0.65;66.73;97088.25;29373;226;63009;-68
2022/03/03 00:35:27;;;;;;;0.60;0.60;;;;;;;0.64;66.91;97089.28;29373;292;63005;-62
2022/03/03 00:35:59;;;;;;;0.50;0.50;;;;;;;0.61;66.78;97087.88;29373;333;63009;-62
2022/03/03 00:36:30;;;;;;;0.60;0.60;;;;;;;0.60;67.10;97091.59;29373;286;63005;-67
2022/03/03 00:37:02;;;;;;;0.60;0.60;;;;;;;0.59;67.11;97087.28;29373;214;63019;-67
2022/03/03 00:37:34;;;;;;;0.60;0.60;;;;;;;0.58;66.84;97099.00;29371;223;64009;-62
2022/03/03 00:38:06;;;;;;;0.60;0.60;;;;;;;0.59;67.13;97100.66;29373;248;63023;-62
2022/03/03 00:38:37;;;;;;;0.60;0.60;;;;;;;0.60;66.90;97096.13;29373;325;63004;-67
2022/03/03 00:39:09;;;;;;;0.60;0.60;;;;;;;0.60;66.91;97091.59;29373;309;63009;-69
2022/03/03 00:39:40;;;;;;;1.95;1.85;;;;;;;0.59;66.62;97089.97;29371;202;64009;-68
2022/03/03 00:40:13;;;;;;;0.60;0.60;;;;;;;0.58;66.72;97099.00;29373;260;63015;-62
2022/03/03 00:40:44;;;;;;;0.60;0.60;;;;;;;0.58;66.89;97103.53;29373;202;63004;-69
2022/03/03 00:41:18;;;;;;;0.60;0.60;;;;;;;0.56;66.70;97103.75;29373;242;63009;-67
2022/03/03 00:41:49;;;;;;;0.60;0.60;;;;;;;0.54;66.96;97092.50;29373;202;63005;-68
2022/03/03 00:42:20;;;;;;;0.68;0.68;;;;;;;0.52;66.92;97094.56;29371;204;64014;-69
2022/03/03 00:42:52;;;;;;;0.60;0.60;;;;;;;0.52;66.77;97099.09;29373;246;63005;-68
2022/03/03 00:43:23;;;;;;;0.60;0.60;;;;;;;0.51;66.97;97092.13;29373;210;63009;-62
2022/03/03 00:43:54;;;;;;;0.60;0.60;;;;;;;0.50;66.96;97093.97;29372;225;64005;-69
2022/03/03 00:44:29;;;;;;;0.60;0.60;;;;;;;0.48;66.93;97104.06;29372;215;64009;-63
2022/03/03 00:45:00;;;;;;;0.60;0.60;;;;;;;0.46;67.35;97105.31;29373;205;63005;-64
2022/03/03 00:45:32;;;;;;;4.80;4.65;;;;;;;0.44;67.27;97108.22;29373;375;63014;-62
2022/03/03 00:46:03;;;;;;;0.60;0.60;;;;;;;0.43;67.73;97105.75;29373;197;63004;-67
2022/03/03 00:46:40;;;;;;;0.60;0.60;;;;;;;0.40;67.75;97100.88;29371;284;64013;-63
2022/03/03 00:47:11;;;;;;;0.60;0.60;;;;;;;0.38;67.53;97098.41;29373;208;63004;-62
2022/03/03 00:47:42;;;;;;;0.60;0.60;;;;;;;0.36;67.80;97097.81;29371;278;64013;-68
2022/03/03 00:48:13;;;;;;;0.70;0.70;;;;;;;0.37;67.48;97107.47;29373;216;63004;-68
2022/03/03 00:48:44;;;;;;;0.80;0.80;;;;;;;0.36;67.38;97097.81;29373;218;63009;-69
2022/03/03 00:49:16;;;;;;;0.60;0.60;;;;;;;0.37;67.39;97102.13;29373;204;63005;-68
2022/03/03 00:49:47;;;;;;;0.60;0.60;;;;;;;0.37;67.57;97102.13;29373;205;63009;-68
2022/03/03 00:50:19;;;;;;;1.58;1.58;;;;;;;0.38;67.24;97097.59;29373;213;63005;-63
2022/03/03 00:50:50;;;;;;;0.70;0.70;;;;;;;0.38;67.18;97092.25;29372;235;63009;-68
2022/03/03 00:51:22;;;;;;;0.60;0.60;;;;;;;0.37;67.31;97098.63;29373;239;63000;-67
2022/03/03 00:51:53;;;;;;;0.60;0.60;;;;;;;0.37;67.47;97102.13;29373;208;63009;-68
2022/03/03 00:52:25;;;;;;;0.70;0.70;;;;;;;0.36;67.47;97105.84;29373;223;63004;-67
2022/03/03 00:52:56;;;;;;;0.60;0.60;;;;;;;0.34;67.54;97102.59;29371;352;64013;-68
2022/03/03 00:53:27;;;;;;;0.60;0.60;;;;;;;0.34;67.61;97097.25;29373;264;63004;-67
2022/03/03 00:53:59;;;;;;;0.60;0.60;;;;;;;0.31;67.61;97098.53;29373;285;63009;-63
2022/03/03 00:54:30;;;;;;;0.68;0.68;;;;;;;0.29;67.60;97100.59;29373;202;63004;-67
2022/03/03 00:55:02;;;;;;;0.60;0.60;;;;;;;0.29;67.63;97099.78;29371;268;64013;-62
2022/03/03 00:55:34;;;;;;;0.60;0.60;;;;;;;0.29;67.61;97097.94;29373;208;63004;-62
2022/03/03 00:56:05;;;;;;;0.60;0.60;;;;;;;0.28;67.55;97101.62;29373;219;63009;-63
2022/03/03 00:56:37;;;;;;;0.60;0.60;;;;;;;0.26;67.79;97101.03;29373;199;63005;-67
2022/03/03 00:57:08;;;;;;;0.60;0.60;;;;;;;0.29;67.62;97102.44;29373;353;63009;-62
2022/03/03 00:57:39;;;;;;;0.60;0.60;;;;;;;0.28;67.53;97092.81;29373;203;63005;-62
2022/03/03 00:58:10;;;;;;;0.60;0.60;;;;;;;0.29;67.72;97097.09;29371;325;64013;-69
2022/03/03 00:58:41;;;;;;;0.70;0.70;;;;;;;0.28;67.50;97100.81;29373;241;63005;-68
2022/03/03 00:59:13;;;;;;;0.60;0.60;;;;;;;0.29;67.37;97110.47;29373;372;63009;-68
2022/03/03 00:59:44;;;;;;;0.60;0.60;;;;;;;0.28;67.33;97103.47;29373;328;63011;-67
2022/03/03 01:00:15;;;;;;;0.60;0.60;;;;;;;0.30;67.24;97101.41;29373;364;63009;-67
2022/03/03 01:00:47;;;;;;;0.60;0.60;;;;;;;0.29;67.42;97102.44;29373;349;63004;-67
2022/03/03 01:01:18;;;;;;;0.60;0.60;;;;;;;0.30;67.18;97101.41;29371;251;64013;-64
2022/03/03 01:01:49;;;;;;;0.60;0.60;;;;;;;0.30;67.37;97096.87;29373;206;63004;-70
2022/03/03 01:02:20;;;;;;;0.60;0.60;;;;;;;0.32;67.08;97102.00;29373;321;63008;-69
2022/03/03 01:02:52;;;;;;;0.60;0.60;;;;;;;0.34;67.08;97097.25;29373;318;63005;-61
2022/03/03 01:03:23;;;;;;;0.60;0.60;;;;;;;0.36;66.61;97100.50;29373;220;63009;-67
2022/03/03 01:03:54;;;;;;;0.60;0.60;;;;;;;0.38;66.61;97094.94;29373;242;63005;-69
2022/03/03 01:04:26;;;;;;;0.60;0.60;;;;;;;0.41;66.33;97097.97;29372;274;64009;-63
2022/03/03 01:04:58;;;;;;;0.60;0.60;;;;;;;0.43;66.37;97095.09;29373;230;63005;-68
2022/03/03 01:05:29;;;;;;;0.60;0.60;;;;;;;0.43;66.24;97095.91;29373;323;63009;-68
2022/03/03 01:06:01;;;;;;;0.60;0.60;;;;;;;0.44;66.12;97094.03;29371;218;64009;-63
2022/03/03 01:06:35;;;;;;;0.60;0.60;;;;;;;0.45;66.10;97093.00;29373;203;63017;-68
2022/03/03 01:07:06;;;;;;;0.60;0.60;;;;;;;0.46;66.17;97100.78;29373;199;63008;-63
2022/03/03 01:07:38;;;;;;;0.60;0.60;;;;;;;0.45;66.22;97099.16;29373;336;63009;-67
2022/03/03 01:08:10;;;;;;;0.60;0.60;;;;;;;0.45;66.27;97093.81;29372;301;63004;-63
2022/03/03 01:08:41;;;;;;;0.60;0.60;;;;;;;0.45;66.29;97098.34;29371;207;64013;-69
2022/03/03 01:09:12;;;;;;;1.15;1.15;;;;;;;0.46;66.41;97099.97;29373;208;63004;-64
2022/03/03 01:09:43;;;;;;;2.95;2.87;;;;;;;0.47;66.17;97094.41;29373;283;63008;-68
2022/03/03 01:10:15;;;;;;;0.60;0.60;;;;;;;0.47;66.03;97096.28;29373;230;63010;-68
2022/03/03 01:10:47;;;;;;;0.60;0.60;;;;;;;0.47;66.26;97088.25;29371;198;64014;-68
2022/03/03 01:11:18;;;;;;;0.60;0.60;;;;;;;0.45;66.21;97088.47;29373;199;63011;-67
2022/03/03 01:11:49;;;;;;;0.68;0.68;;;;;;;0.44;65.96;97092.19;29371;226;64014;-64
2022/03/03 01:12:20;;;;;;;0.60;0.60;;;;;;;0.45;66.46;97088.47;29373;206;63005;-65
2022/03/03 01:12:52;;;;;;;0.60;0.60;;;;;;;0.44;66.07;97092.19;29373;236;63009;-63
2022/03/03 01:13:23;;;;;;;0.60;0.60;;;;;;;0.45;66.39;97090.34;29373;227;63005;-64
2022/03/03 01:13:55;;;;;;;0.60;0.60;;;;;;;0.45;66.45;97085.81;29371;212;64013;-67
2022/03/03 01:14:26;;;;;;;0.60;0.60;;;;;;;0.44;66.23;97086.03;29373;202;63005;-67
2022/03/03 01:14:57;;;;;;;0.60;0.60;;;;;;;0.45;66.40;97085.00;29373;212;63016;-66
2022/03/03 01:15:32;;;;;;;0.60;0.60;;;;;;;0.45;66.49;97091.16;29373;339;63004;-62
2022/03/03 01:16:04;;;;;;;0.60;0.60;;;;;;;0.45;66.25;97093.81;29373;228;63009;-68
2022/03/03 01:16:36;;;;;;;0.60;0.60;;;;;;;0.45;66.27;97091.16;29373;294;63004;-69
2022/03/03 01:17:07;;;;;;;0.60;0.60;;;;;;;0.46;66.19;97083.97;29373;309;63008;-68
2022/03/03 01:17:39;;;;;;;0.60;0.60;;;;;;;0.44;66.63;97086.84;29373;330;63004;-68
2022/03/03 01:18:11;;;;;;;0.60;0.60;;;;;;;0.43;66.63;97093.22;29373;202;63009;-68
2022/03/03 01:18:42;;;;;;;0.60;0.60;;;;;;;0.44;66.31;97091.38;29373;228;63009;-68
2022/03/03 01:19:14;;;;;;;0.60;0.60;;;;;;;0.45;66.45;97091.16;29371;362;64014;-68
2022/03/03 01:19:45;;;;;;;0.60;0.60;;;;;;;0.44;66.50;97094.84;29373;205;63005;-63
2022/03/03 01:20:17;;;;;;;0.60;0.60;;;;;;;0.44;66.37;97092.19;29373;215;63009;-68
2022/03/03 01:20:49;;;;;;;0.60;0.60;;;;;;;0.43;66.31;97097.75;29373;309;63005;-68
2022/03/03 01:21:20;;;;;;;0.60;0.60;;;;;;;0.42;66.28;97094.28;29373;209;63009;-64
2022/03/03 01:21:51;;;;;;;0.60;0.60;;;;;;;0.40;66.63;97096.34;29373;197;63005;-64
2022/03/03 01:22:22;;;;;;;0.60;0.60;;;;;;;0.39;66.63;97100.06;29373;196;63009;-68
2022/03/03 01:22:55;;;;;;;0.60;0.60;;;;;;;0.36;66.83;97097.81;29373;226;63004;-63
2022/03/03 01:23:26;;;;;;;0.60;0.60;;;;;;;0.35;66.69;97103.41;29373;224;63009;-63
2022/03/03 01:24:00;;;;;;;0.60;0.60;;;;;;;0.33;66.84;97098.31;29371;368;64000;-68
2022/03/03 01:24:32;;;;;;;0.60;0.60;;;;;;;0.29;66.72;97105.94;29373;215;63008;-69
2022/03/03 01:25:04;;;;;;;0.60;0.60;;;;;;;0.26;67.86;97110.91;29373;353;63004;-69
2022/03/03 01:25:35;;;;;;;0.60;0.60;;;;;;;0.20;67.10;97109.09;29373;210;63009;-63
2022/03/03 01:26:07;;;;;;;0.60;0.60;;;;;;;0.16;67.29;97111.41;29373;233;63005;-62
2022/03/03 01:26:40;;;;;;;2.60;2.50;;;;;;;0.16;67.28;97105.25;29371;215;64014;-63
2022/03/03 01:27:12;;;;;;;9.57;9.18;;;;;;;0.16;67.30;97110.59;29369;234;65005;-68
2022/03/03 01:27:43;;;;;;;0.60;0.60;;;;;;;0.16;67.26;97107.91;29373;204;63009;-63
2022/03/03 01:28:14;;;;;;;0.60;0.60;;;;;;;0.15;67.66;97106.28;29373;230;63005;-69
2022/03/03 01:28:45;;;;;;;0.60;0.60;;;;;;;0.13;67.43;97101.16;29373;365;63009;-68
2022/03/03 01:29:17;;;;;;;0.60;0.60;;;;;;;0.11;67.93;97105.09;29373;196;63005;-63
2022/03/03 01:29:48;;;;;;;0.60;0.60;;;;;;;0.10;67.85;97106.13;29373;223;63009;-68
2022/03/03 01:30:19;;;;;;;0.80;0.80;;;;;;;0.10;67.93;97108.78;29373;300;63004;-68
2022/03/03 01:30:50;;;;;;;0.60;0.60;;;;;;;0.10;67.70;97100.78;29373;248;63009;-68
2022/03/03 01:31:21;;;;;;;0.60;0.60;;;;;;;0.11;67.56;97107.75;29371;270;64009;-63
2022/03/03 01:31:53;;;;;;;0.60;0.60;;;;;;;0.10;67.46;97095.47;29373;216;63009;-64
2022/03/03 01:32:24;;;;;;;0.60;0.60;;;;;;;0.11;67.48;97092.56;29371;346;64008;-67
2022/03/03 01:32:55;;;;;;;0.60;0.60;;;;;;;0.12;67.15;97094.19;29373;204;63009;-63
2022/03/03 01:33:26;;;;;;;0.60;0.60;;;;;;;0.12;67.34;97093.38;29373;353;63005;-68
2022/03/03 01:33:57;;;;;;;0.60;0.60;;;;;;;0.13;67.13;97092.34;29373;236;63009;-64
2022/03/03 01:34:29;;;;;;;0.60;0.60;;;;;;;0.13;66.80;97089.69;29372;219;64005;-69
2022/03/03 01:35:00;;;;;;;0.60;0.60;;;;;;;0.13;66.81;97089.69;29373;207;63009;-69
2022/03/03 01:35:32;;;;;;;0.60;0.60;;;;;;;0.13;66.86;97079.00;29373;199;63005;-68
2022/03/03 01:36:05;;;;;;;0.60;0.60;;;;;;;0.13;66.50;97090.50;29373;225;63009;-63
2022/03/03 01:36:36;;;;;;;0.70;0.70;;;;;;;0.12;66.63;97082.72;29374;231;63005;-67
2022/03/03 01:37:08;;;;;;;0.60;0.60;;;;;;;0.10;66.45;97079.44;29372;199;64013;-68
2022/03/03 01:37:39;;;;;;;0.60;0.60;;;;;;;0.10;66.79;97074.09;29373;344;63004;-69
2022/03/03 01:38:11;;;;;;;0.60;0.60;;;;;;;0.09;66.57;97072.47;29374;305;63009;-68
2022/03/03 01:38:42;;;;;;;0.60;0.60;;;;;;;0.09;66.50;97072.47;29374;208;63004;-62
2022/03/03 01:39:13;;;;;;;0.60;0.60;;;;;;;0.08;66.42;97073.53;29374;216;63009;-69
2022/03/03 01:39:44;;;;;;;0.60;0.60;;;;;;;0.07;66.63;97075.38;29372;204;64008;-69
2022/03/03 01:40:22;;;;;;;0.60;0.60;;;;;;;0.05;66.39;97065.94;29374;253;63008;-68
2022/03/03 01:40:53;;;;;;;0.60;0.60;;;;;;;0.04;66.38;97064.31;29374;209;63005;-63
2022/03/03 01:41:24;;;;;;;0.60;0.60;;;;;;;0.03;66.43;97062.69;29374;240;63009;-68
2022/03/03 01:41:56;;;;;;;0.60;0.60;;;;;;;0.02;66.73;97061.06;29374;211;63005;-69
2022/03/03 01:42:27;;;;;;;0.60;0.60;;;;;;;0.00;66.78;97064.75;29374;341;63009;-68
2022/03/03 01:42:58;;;;;;;0.60;0.60;;;;;;;0.01;66.57;97060.25;29374;268;63005;-64
2022/03/03 01:43:30;;;;;;;0.60;0.60;;;;;;;0.02;66.81;97064.53;29374;218;63009;-67
2022/03/03 01:44:01;;;;;;;0.60;0.60;;;;;;;0.00;66.74;97059.44;29374;196;63005;-68
2022/03/03 01:44:32;;;;;;;0.90;0.90;;;;;;;0.02;66.91;97055.72;29374;204;63009;-69
2022/03/03 01:45:04;;;;;;;0.60;0.60;;;;;;;0.02;66.80;97051.19;29372;323;64009;-67
2022/03/03 01:45:36;;;;;;;0.60;0.60;;;;;;;0.03;66.69;97060.03;29374;218;63009;-63
2022/03/03 01:46:07;;;;;;;0.60;0.60;;;;;;;0.03;67.00;97052.84;29374;224;63004;-63
2022/03/03 01:46:52;;;;;;;0.60;0.60;;;;;;;0.04;66.70;97049.13;29372;245;64027;-67
2022/03/03 01:47:27;;;;;;;0.60;0.60;;;;;;;0.04;67.12;97057.13;29373;208;63004;-63
2022/03/03 01:47:59;;;;;;;0.60;0.60;;;;;;;0.04;67.10;97059.00;29374;303;63008;-67
2022/03/03 01:48:33;;;;;;;0.60;0.60;;;;;;;0.05;66.78;97055.28;29374;218;63005;-68
2022/03/03 01:49:04;;;;;;;0.60;0.60;;;;;;;0.07;66.96;97061.22;29374;204;63009;-67
2022/03/03 01:49:35;;;;;;;10.00;9.20;;;;;;;0.08;66.67;97057.50;29370;272;65001;-67
2022/03/03 01:50:07;;;;;;;0.60;0.60;;;;;;;0.10;66.61;97050.09;29372;216;64013;-67
2022/03/03 01:50:42;;;;;;;0.60;0.60;;;;;;;0.13;66.41;97052.31;29374;214;63005;-67
2022/03/03 01:51:13;;;;;;;0.60;0.60;;;;;;;0.15;66.30;97050.25;29372;219;64013;-66
2022/03/03 01:51:44;;;;;;;0.60;0.60;;;;;;;0.18;66.09;97050.63;29374;268;63005;-63
2022/03/03 01:52:16;;;;;;;0.60;0.60;;;;;;;0.19;65.76;97046.91;29374;264;63009;-68
2022/03/03 01:52:48;;;;;;;0.60;0.60;;;;;;;0.20;66.15;97048.56;29374;320;63004;-63
2022/03/03 01:53:19;;;;;;;0.60;0.60;;;;;;;0.22;66.11;97051.00;29374;234;63009;-68
2022/03/03 01:53:51;;;;;;;0.60;0.60;;;;;;;0.21;66.06;97052.84;29374;243;63004;-63
2022/03/03 01:54:22;;;;;;;0.60;0.60;;;;;;;0.23;66.01;97047.28;29374;204;63009;-60
2022/03/03 01:54:54;;;;;;;0.60;0.60;;;;;;;0.27;65.75;97051.16;29374;197;63004;-68
2022/03/03 01:55:25;;;;;;;0.70;0.70;;;;;;;0.29;65.57;97049.06;29372;219;64013;-68
2022/03/03 01:55:57;;;;;;;0.60;0.60;;;;;;;0.31;65.50;97047.00;29374;330;63005;-67
2022/03/03 01:56:30;;;;;;;0.60;0.60;;;;;;;0.34;65.17;97049.22;29374;245;63009;-68
2022/03/03 01:57:02;;;;;;;0.60;0.60;;;;;;;0.35;65.16;97050.81;29374;254;63005;-64
2022/03/03 01:57:33;;;;;;;0.60;0.60;;;;;;;0.36;65.19;97051.63;29374;224;63009;-67
2022/03/03 01:58:05;;;;;;;0.60;0.60;;;;;;;0.36;65.16;97043.63;29374;249;63000;-67
2022/03/03 01:58:39;;;;;;;0.60;0.60;;;;;;;0.37;65.33;97048.75;29374;214;63009;-63
2022/03/03 01:59:12;;;;;;;0.60;0.60;;;;;;;0.39;64.87;97041.31;29372;220;64009;-68
2022/03/03 01:59:44;;;;;;;0.60;0.60;;;;;;;0.41;65.05;97049.09;29374;320;63009;-63
2022/03/03 02:00:16;;;;;;;0.60;0.60;;;;;;;0.43;64.80;97045.19;29374;202;63004;-68
2022/03/03 02:00:51;;;;;;;0.60;0.60;;;;;;;0.45;64.67;97045.78;29374;365;63009;-63
2022/03/03 02:01:23;;;;;;;0.60;0.60;;;;;;;0.46;64.21;97041.25;29374;265;63004;-68
2022/03/03 02:01:56;;;;;;;0.60;0.60;;;;;;;0.48;64.39;97041.84;29374;258;63008;-63
2022/03/03 02:02:27;;;;;;;0.60;0.60;;;;;;;0.49;64.14;97046.13;29374;295;63010;-63
2022/03/03 02:03:02;;;;;;;0.60;0.60;;;;;;;0.48;64.51;97045.31;29374;207;63008;-63
2022/03/03 02:03:33;;;;;;;0.60;0.60;;;;;;;0.46;64.23;97047.41;29374;360;63005;-63
2022/03/03 02:04:06;;;;;;;0.60;0.60;;;;;;;0.47;64.70;97042.88;29373;250;64009;-67
2022/03/03 02:04:39;;;;;;;0.55;0.55;;;;;;;0.47;64.27;97043.69;29372;273;64009;-69
2022/03/03 02:05:11;;;;;;;0.60;0.60;;;;;;;0.47;64.68;97046.38;29374;250;63009;-68
2022/03/03 02:05:42;;;;;;;0.60;0.60;;;;;;;0.46;64.62;97052.75;29374;356;63005;-62
2022/03/03 02:06:13;;;;;;;0.60;0.60;;;;;;;0.44;64.79;97054.81;29374;233;63009;-68
2022/03/03 02:06:45;;;;;;;0.60;0.60;;;;;;;0.43;64.70;97052.37;29374;215;63004;-63
2022/03/03 02:07:16;;;;;;;0.60;0.60;;;;;;;0.41;65.11;97057.94;29372;203;64013;-68
2022/03/03 02:07:47;;;;;;;0.60;0.60;;;;;;;0.39;65.34;97053.84;29374;233;63004;-63
2022/03/03 02:08:19;;;;;;;3.08;2.97;;;;;;;0.37;65.21;97062.09;29374;210;63009;-64
2022/03/03 02:08:53;;;;;;;0.60;0.60;;;;;;;0.35;65.31;97060.72;29374;236;63004;-68
2022/03/03 02:09:25;;;;;;;0.60;0.60;;;;;;;0.31;65.63;97065.69;29374;386;63008;-68
2022/03/03 02:09:56;;;;;;;0.60;0.60;;;;;;;0.28;65.89;97063.44;29374;220;63005;-63
2022/03/03 02:10:28;;;;;;;0.60;0.60;;;;;;;0.24;66.02;97059.59;29374;203;63020;-68
2022/03/03 02:10:59;;;;;;;0.60;0.60;;;;;;;0.22;66.06;97061.66;29375;211;63005;-68
2022/03/03 02:11:31;;;;;;;0.60;0.60;;;;;;;0.19;66.06;97060.25;29375;219;63009;-63
2022/03/03 02:12:04;;;;;;;0.60;0.60;;;;;;;0.18;66.41;97065.81;29375;222;63005;-68
2022/03/03 02:12:35;;;;;;;4.32;3.90;;;;;;;0.14;66.78;97062.78;29373;278;64013;-62
2022/03/03 02:13:07;;;;;;;0.60;0.60;;;;;;;0.11;66.64;97062.41;29375;263;63020;-62
2022/03/03 02:13:38;;;;;;;0.60;0.60;;;;;;;0.08;66.85;97061.00;29375;227;63009;-68
2022/03/03 02:14:09;;;;;;;0.60;0.60;;;;;;;0.05;67.05;97055.28;29375;205;63000;-68
2022/03/03 02:14:46;;;;;;;1.83;1.83;;;;;;;0.04;66.91;97053.66;29373;250;64013;-70
2022/03/03 02:15:19;;;;;;;2.35;2.25;;;;;;;0.03;66.65;97054.69;29375;199;63004;-67
2022/03/03 02:15:55;;;;;;;2.65;2.55;;;;;;;0.03;66.69;97058.16;29373;215;64013;-63
2022/03/03 02:16:27;;;;;;;0.60;0.60;;;;;;;0.04;66.58;97059.00;29375;234;63004;-61
2022/03/03 02:16:58;;;;;;;0.85;0.85;;;;;;;0.03;66.45;97054.69;29375;215;63008;-67
2022/03/03 02:17:29;;;;;;;0.70;0.70;;;;;;;0.00;66.32;97051.44;29375;225;63005;-68
2022/03/03 02:18:01;;;;;;;0.60;0.60;;;;;;;0.02;66.43;97047.72;29373;219;64014;-66
2022/03/03 02:18:42;;;;;;;0.60;0.60;;;;;;;0.01;66.41;97049.56;29375;218;63005;-62
2022/03/03 02:19:17;;;;;;;0.70;0.70;;;;;;;0.00;66.15;97042.63;29397;221;63009;-67
2022/03/03 02:19:49;;;;;;;0.60;0.60;;;;;;;-0.01;66.12;97055.16;29396;202;63005;-67
2022/03/03 02:20:24;;;;;;;0.60;0.60;;;;;;;-0.05;66.46;97056.63;29376;307;63009;-67
2022/03/03 02:20:56;;;;;;;0.60;0.60;;;;;;;-0.03;66.26;97054.56;29374;280;64009;-68
2022/03/03 02:21:27;;;;;;;0.60;0.60;;;;;;;-0.03;66.32;97049.22;29376;250;63009;-67
2022/03/03 02:22:01;;;;;;;0.60;0.60;;;;;;;-0.04;66.52;97052.94;29376;206;63004;-61
2022/03/03 02:22:35;;;;;;;1.02;1.02;;;;;;;-0.03;66.43;97059.09;29376;197;63021;-63
2022/03/03 02:23:07;;;;;;;0.60;0.60;;;;;;;-0.03;66.27;97054.56;29374;207;64009;-68
2022/03/03 02:23:38;;;;;;;0.60;0.60;;;;;;;-0.04;66.36;97058.25;29376;202;63009;-63
2022/03/03 02:24:09;;;;;;;0.60;0.60;;;;;;;-0.09;67.13;97055.44;29375;206;63004;-63
2022/03/03 02:24:41;;;;;;;0.60;0.60;;;;;;;-0.16;67.41;97060.03;29376;210;63008;-68
2022/03/03 02:25:12;;;;;;;0.60;0.60;;;;;;;-0.19;67.52;97055.12;29376;239;63005;-63
2022/03/03 02:25:46;;;;;;;1.75;1.40;;;;;;;-0.23;67.24;97063.78;29376;216;63009;-70
2022/03/03 02:26:23;;;;;;;0.60;0.60;;;;;;;-0.29;68.58;97076.13;29376;286;63005;-69
2022/03/03 02:26:59;;;;;;;0.60;0.60;;;;;;;-0.34;68.33;97062.66;29376;266;63009;-68
2022/03/03 02:27:34;;;;;;;0.70;0.70;;;;;;;-0.37;68.52;97063.94;29374;207;64009;-68
2022/03/03 02:28:05;;;;;;;0.60;0.60;;;;;;;-0.39;69.12;97066.00;29376;203;63012;-69
2022/03/03 02:28:37;;;;;;;2.00;1.90;;;;;;;-0.42;69.02;97065.63;29376;212;63005;-67
2022/03/03 02:29:12;;;;;;;0.60;0.60;;;;;;;-0.46;69.10;97067.09;29376;218;63009;-70
2022/03/03 02:29:43;;;;;;;1.42;1.42;;;;;;;-0.47;68.44;97068.13;29376;212;63007;-68
2022/03/03 02:30:17;;;;;;;0.95;0.95;;;;;;;-0.47;68.35;97063.59;29376;197;63009;-63
2022/03/03 02:30:48;;;;;;;0.60;0.60;;;;;;;-0.43;68.45;97062.12;29376;398;63004;-68
2022/03/03 02:31:20;;;;;;;0.60;0.60;;;;;;;-0.42;68.68;97060.28;29374;230;64013;-63
2022/03/03 02:31:51;;;;;;;0.60;0.60;;;;;;;-0.43;68.89;97058.66;29376;219;63004;-62
2022/03/03 02:32:23;;;;;;;0.62;0.62;;;;;;;-0.45;68.66;97058.87;29376;356;63008;-66
2022/03/03 02:32:54;;;;;;;0.60;0.60;;;;;;;-0.46;68.71;97054.56;29376;263;63005;-63
2022/03/03 02:33:25;;;;;;;2.08;1.98;;;;;;;-0.45;68.44;97060.72;29376;214;63009;-68